MST,Max TemperatureF,Mean TemperatureF,Min TemperatureF,Max Dew PointF,MeanDew PointF,Min DewpointF,Max Humidity, Mean Humidity, Min Humidity, Max Sea Level PressureIn, Mean Sea Level PressureIn, Min Sea Level PressureIn, Max VisibilityMiles, Mean VisibilityMiles, Min VisibilityMiles, Max Wind SpeedMPH, Mean Wind SpeedMPH, Max Gust SpeedMPH,PrecipitationIn, CloudCover, Events, WindDirDegrees
2012-11-1,64,42,21,16,7,3,58,29,9,30.20,30.07,30.01,10,10,10,16,3,24,0.00,0,,224
2012-11-2,63,44,26,15,9,5,51,30,12,30.17,30.06,29.99,10,10,10,9,1,17,0.00,0,,229
2012-11-3,63,42,21,24,16,10,60,42,20,30.30,30.19,30.09,10,10,10,8,2,,0.00,0,,141
2012-11-4,66,44,21,20,12,8,66,37,11,30.43,30.30,30.23,10,10,10,9,1,,0.00,0,,45
2012-11-5,69,46,23,22,16,9,58,37,15,30.44,30.31,30.24,10,10,10,13,4,,0.00,0,,50
2012-11-6,71,47,23,23,17,13,69,40,14,30.39,30.26,30.18,10,10,10,9,3,,0.00,0,,61
2012-11-7,69,46,23,20,14,9,63,38,12,30.30,30.13,30.01,10,10,10,12,2,23,0.00,0,,225
2012-11-8,61,40,19,39,24,10,80,51,17,30.08,29.93,29.75,10,10,10,25,9,34,0.00,4,,209
2012-11-9,51,40,30,39,34,25,89,74,48,29.89,29.72,29.60,10,10,5,36,17,51,0.02,7,Rain,220
2012-11-10,34,22,9,23,10,2,85,57,26,30.07,29.85,29.68,10,10,10,16,7,29,0.00,3,,253
2012-11-11,37,20,3,12,1,-3,80,56,21,30.52,30.30,30.01,10,9,2,10,1,16,0.00,1,Snow,324
2012-11-12,46,24,3,3,-6,-14,70,32,9,30.57,30.43,30.35,10,10,10,15,5,21,0.00,0,,80
2012-11-13,54,32,10,4,-4,-9,44,27,12,30.44,30.35,30.27,10,10,10,14,3,18,0.00,0,,53
2012-11-14,59,34,9,6,-1,-8,53,29,10,30.42,30.29,30.20,10,10,10,8,4,,0.00,0,,64
2012-11-15,57,36,14,10,4,-3,52,30,10,30.38,30.26,30.16,10,10,10,13,2,,0.00,1,,72
2012-11-16,59,47,34,31,22,8,70,42,27,30.17,30.11,30.04,10,10,10,14,4,24,0.00,6,,210
2012-11-17,55,40,25,33,27,17,82,58,37,30.20,30.09,30.01,10,10,10,21,5,28,0.00,5,,216
2012-11-18,54,40,21,36,32,18,87,69,40,30.24,30.13,30.01,10,10,10,16,5,22,0.00,5,,206
2012-11-19,55,36,16,32,16,9,85,56,20,30.43,30.32,30.24,10,10,10,10,2,,0.00,0,,206
2012-11-20,62,39,16,19,11,7,74,44,12,30.42,30.27,30.16,10,10,10,9,1,,0.00,0,,189
2012-11-21,61,38,14,22,11,6,71,42,14,30.32,30.19,30.09,10,10,10,14,3,22,0.00,0,,210
2012-11-22,61,39,17,20,13,7,68,43,19,30.42,30.25,30.12,10,10,10,12,2,,0.00,0,,54
2012-11-23,59,40,21,19,12,4,63,37,17,30.41,30.36,30.32,10,10,10,15,6,22,0.00,0,,61
2012-11-24,63,40,16,15,8,3,62,37,11,30.46,30.28,30.11,10,10,10,8,1,,0.00,0,,235
2012-11-25,61,38,15,16,7,1,59,35,12,30.22,30.08,29.97,10,10,10,13,3,23,0.00,0,Tornado,241
2012-11-26,59,38,16,17,9,3,59,40,18,30.35,30.19,30.05,10,10,10,7,1,,0.00,0,,31
2012-11-27,59,37,15,17,8,3,61,38,13,30.46,30.32,30.26,10,10,9,9,2,18,0.00,0,,212
2012-11-28,60,40,19,26,18,8,65,45,24,30.39,30.24,30.11,10,10,8,24,5,31,0.00,0,,216
2012-11-29,55,36,18,31,22,13,82,61,36,30.29,30.20,30.14,10,10,10,15,3,22,0.00,1,,229
2012-11-30,53,40,26,38,30,21,100,78,41,30.25,30.17,30.05,10,8,0,16,5,25,0.00,2,Fog,219